createdAt,value
2022-09-17T00:00:56.020Z,3.17
2022-09-17T00:02:58.971Z,3.80
2022-09-17T00:05:03.374Z,3.30
2022-09-17T00:07:06.751Z,3.03
2022-09-17T00:09:10.300Z,2.53
2022-09-17T00:11:14.872Z,5.93
2022-09-17T00:13:17.823Z,2.40
2022-09-17T00:15:20.769Z,2.67
2022-09-17T00:17:23.774Z,2.23
2022-09-17T00:19:26.737Z,2.83
2022-09-17T00:21:31.719Z,2.47
2022-09-17T00:23:34.722Z,2.70
2022-09-17T00:25:39.245Z,2.83
2022-09-17T00:27:42.240Z,2.87
2022-09-17T00:29:45.662Z,6.80
2022-09-17T00:31:48.807Z,2.97
2022-09-17T00:33:52.519Z,4.00
2022-09-17T00:35:59.414Z,3.60
2022-09-17T00:38:03.748Z,5.10
2022-09-17T00:40:07.887Z,3.00
2022-09-17T00:42:11.157Z,2.80
2022-09-17T00:44:43.014Z,3.17
2022-09-17T00:46:46.369Z,3.63
2022-09-17T00:48:49.492Z,6.80
2022-09-17T00:50:53.698Z,3.10
2022-09-17T00:53:00.603Z,3.60
2022-09-17T00:55:10.627Z,3.50
2022-09-17T00:57:13.644Z,4.40
2022-09-17T00:59:16.744Z,2.27
2022-09-17T01:01:20.106Z,3.47
2022-09-17T01:03:23.160Z,5.10
2022-09-17T01:05:32.098Z,2.80
2022-09-17T01:08:00.133Z,3.13
2022-09-17T01:10:21.153Z,3.37
2022-09-17T01:12:41.262Z,3.70
2022-09-17T01:14:52.059Z,2.37
2022-09-17T01:17:00.528Z,3.37
2022-09-17T01:19:14.149Z,2.73
2022-09-17T01:21:46.962Z,5.03
2022-09-17T01:24:07.602Z,3.30
2022-09-17T01:26:30.528Z,3.33
2022-09-17T01:28:43.478Z,2.93
2022-09-17T01:31:06.292Z,1.90
2022-09-17T01:33:13.470Z,3.50
2022-09-17T01:35:21.096Z,5.00
2022-09-17T01:37:30.719Z,2.63
2022-09-17T01:39:43.296Z,3.10
2022-09-17T01:41:52.931Z,5.93
2022-09-17T01:44:00.114Z,2.70
2022-09-17T01:46:11.279Z,2.93
2022-09-17T01:48:18.064Z,2.40
2022-09-17T01:50:25.547Z,4.57
2022-09-17T01:52:28.958Z,4.07
2022-09-17T01:54:38.074Z,3.77
2022-09-17T01:56:46.052Z,3.10
2022-09-17T01:58:53.589Z,2.57
2022-09-17T02:00:59.914Z,2.90
2022-09-17T02:03:08.222Z,2.20
2022-09-17T02:05:16.229Z,3.00
2022-09-17T02:07:21.218Z,3.23
2022-09-17T02:09:26.678Z,5.10
2022-09-17T02:11:29.805Z,2.70
2022-09-17T02:13:34.539Z,1.90
2022-09-17T02:15:40.797Z,2.83
2022-09-17T02:17:47.627Z,2.30
2022-09-17T02:19:53.727Z,1.93
2022-09-17T02:22:02.094Z,2.37
2022-09-17T02:24:09.836Z,3.30
2022-09-17T02:26:15.414Z,3.60
2022-09-17T02:28:23.425Z,4.83
2022-09-17T02:30:26.525Z,3.23
2022-09-17T02:32:29.518Z,3.23
2022-09-17T02:34:32.909Z,4.00
2022-09-17T02:36:37.297Z,2.63
2022-09-17T02:38:42.867Z,2.67
2022-09-17T02:40:48.765Z,3.00
2022-09-17T02:43:01.435Z,3.07
2022-09-17T02:45:08.236Z,3.43
2022-09-17T02:47:38.805Z,5.20
2022-09-17T02:49:54.442Z,2.57
2022-09-17T02:52:05.523Z,3.10
2022-09-17T02:54:15.735Z,3.93
2022-09-17T02:56:25.571Z,2.10
2022-09-17T02:58:32.500Z,2.20
2022-09-17T03:00:35.982Z,5.20
2022-09-17T03:02:43.331Z,2.03
2022-09-17T03:04:48.339Z,5.07
2022-09-17T03:06:53.181Z,3.40
2022-09-17T03:08:58.044Z,3.20
2022-09-17T03:11:01.179Z,2.10
2022-09-17T03:13:04.175Z,3.90
2022-09-17T03:15:08.048Z,4.20
2022-09-17T03:17:11.173Z,3.67
2022-09-17T03:19:14.092Z,2.80
2022-09-17T03:21:17.086Z,2.60
2022-09-17T03:23:20.027Z,5.53
2022-09-17T03:25:24.315Z,3.60
2022-09-17T03:27:27.270Z,3.40
2022-09-17T03:29:30.263Z,4.10
2022-09-17T03:31:33.304Z,3.70
2022-09-17T03:33:36.280Z,6.07
2022-09-17T03:35:39.275Z,2.30
2022-09-17T03:37:43.061Z,3.50
2022-09-17T03:39:46.076Z,3.20
2022-09-17T03:41:50.727Z,2.37
2022-09-17T03:43:54.027Z,3.40
2022-09-17T03:45:57.270Z,3.60
2022-09-17T03:48:00.210Z,7.40
2022-09-17T03:50:03.215Z,6.37
2022-09-17T03:52:06.298Z,3.17
2022-09-17T03:54:09.491Z,2.90
2022-09-17T03:56:12.505Z,4.37
2022-09-17T03:58:17.259Z,3.30
2022-09-17T04:00:20.400Z,3.90
2022-09-17T04:02:23.627Z,5.77
2022-09-17T04:04:26.683Z,3.63
2022-09-17T04:06:29.700Z,6.27
2022-09-17T04:08:32.623Z,2.87
2022-09-17T04:10:35.701Z,3.70
2022-09-17T04:12:38.701Z,3.67
2022-09-17T04:14:43.033Z,3.97
2022-09-17T04:16:46.257Z,4.33
2022-09-17T04:18:49.201Z,4.57
2022-09-17T04:20:52.144Z,5.13
2022-09-17T04:22:55.099Z,4.33
2022-09-17T04:24:58.059Z,5.47
2022-09-17T04:27:01.045Z,10.03
2022-09-17T04:29:04.042Z,4.00
2022-09-17T04:31:08.741Z,4.87
2022-09-17T04:33:11.696Z,4.17
2022-09-17T04:35:14.688Z,4.10
2022-09-17T04:37:17.645Z,4.10
2022-09-17T04:39:20.600Z,4.43
2022-09-17T04:41:23.576Z,4.53
2022-09-17T04:43:26.605Z,5.43
2022-09-17T04:45:30.511Z,4.23
2022-09-17T04:47:34.837Z,3.37
2022-09-17T04:49:37.790Z,5.70
2022-09-17T04:51:40.810Z,5.10
2022-09-17T04:53:43.826Z,7.23
2022-09-17T04:55:46.738Z,2.90
2022-09-17T04:57:50.587Z,3.77
2022-09-17T04:59:53.809Z,5.20
2022-09-17T05:01:56.782Z,4.10
2022-09-17T05:04:01.295Z,2.90
2022-09-17T05:06:04.280Z,4.23
2022-09-17T05:08:08.287Z,4.53
2022-09-17T05:10:12.752Z,4.87
2022-09-17T05:12:15.827Z,5.00
2022-09-17T05:14:18.857Z,4.40
2022-09-17T05:16:22.122Z,4.23
2022-09-17T05:18:25.958Z,4.63
2022-09-17T05:20:30.257Z,4.63
2022-09-17T05:22:33.170Z,5.43
2022-09-17T05:24:39.258Z,8.13
2022-09-17T05:26:42.156Z,8.87
2022-09-17T05:28:45.151Z,5.53
2022-09-17T05:30:48.088Z,6.57
2022-09-17T05:32:59.815Z,5.43
2022-09-17T05:35:05.634Z,6.90
2022-09-17T05:37:12.029Z,7.10
2022-09-17T05:39:15.044Z,7.10
2022-09-17T05:41:17.974Z,5.10
2022-09-17T05:43:23.926Z,6.00
2022-09-17T05:45:27.157Z,4.23
2022-09-17T05:47:30.224Z,4.33
2022-09-17T05:49:33.150Z,5.40
2022-09-17T05:51:36.130Z,4.77
2022-09-17T05:53:40.474Z,6.63
2022-09-17T05:55:43.379Z,6.60
2022-09-17T05:57:46.356Z,7.07
2022-09-17T05:59:49.339Z,5.57
2022-09-17T06:01:52.370Z,6.10
2022-09-17T06:03:55.499Z,5.87
2022-09-17T06:06:00.101Z,6.27
2022-09-17T06:08:03.651Z,5.20
2022-09-17T06:10:09.481Z,5.03
2022-09-17T06:12:12.424Z,5.27
2022-09-17T06:14:15.542Z,4.67
2022-09-17T06:16:18.588Z,5.07
2022-09-17T06:18:21.805Z,4.40
2022-09-17T06:20:24.922Z,12.87
2022-09-17T06:22:27.889Z,4.90
2022-09-17T06:24:30.866Z,5.23
2022-09-17T06:26:35.175Z,5.00
2022-09-17T06:28:41.653Z,4.87
2022-09-17T06:30:44.929Z,6.43
2022-09-17T06:32:47.922Z,7.33
2022-09-17T06:34:50.887Z,7.03
2022-09-17T06:36:54.059Z,6.50
2022-09-17T06:38:57.211Z,4.87
2022-09-17T06:41:00.371Z,7.20
2022-09-17T06:43:05.117Z,6.40
2022-09-17T06:45:13.253Z,5.43
2022-09-17T06:47:19.122Z,4.43
2022-09-17T06:49:22.335Z,5.10
2022-09-17T06:51:25.350Z,7.90
2022-09-17T06:53:29.431Z,4.63
2022-09-17T06:55:32.389Z,4.13
2022-09-17T06:57:35.326Z,8.43
2022-09-17T06:59:39.736Z,7.60
2022-09-17T07:01:43.554Z,5.73
2022-09-17T07:03:46.548Z,4.80
2022-09-17T07:05:49.540Z,5.10
2022-09-17T07:07:52.887Z,8.00
2022-09-17T07:09:56.153Z,5.40
2022-09-17T07:11:59.093Z,5.80
2022-09-17T07:14:02.148Z,11.80
2022-09-17T07:16:08.376Z,6.33
2022-09-17T07:18:12.129Z,8.13
2022-09-17T07:20:15.719Z,8.90
2022-09-17T07:22:19.153Z,4.03
2022-09-17T07:24:22.213Z,8.60
2022-09-17T07:26:25.197Z,7.17
2022-09-17T07:28:29.128Z,4.90
2022-09-17T07:30:32.101Z,4.90
2022-09-17T07:32:36.471Z,5.07
2022-09-17T07:34:40.025Z,7.90
2022-09-17T07:36:44.232Z,5.30
2022-09-17T07:38:47.909Z,8.00
2022-09-17T07:40:58.429Z,6.20
2022-09-17T07:43:01.523Z,6.33
2022-09-17T07:45:04.986Z,6.20
2022-09-17T07:47:08.205Z,6.83
2022-09-17T07:49:12.619Z,4.93
2022-09-17T07:51:17.013Z,7.70
2022-09-17T07:53:20.254Z,8.87
2022-09-17T07:55:23.871Z,5.97
2022-09-17T07:57:26.831Z,8.53
2022-09-17T07:59:29.814Z,5.00
2022-09-17T08:01:34.144Z,6.07
2022-09-17T08:03:37.710Z,7.07
2022-09-17T08:05:42.107Z,4.50
2022-09-17T08:07:45.102Z,6.83
2022-09-17T08:09:48.092Z,6.00
2022-09-17T08:11:56.191Z,7.93
2022-09-17T08:13:59.991Z,9.27
2022-09-17T08:16:05.339Z,4.63
2022-09-17T08:18:08.594Z,6.60
2022-09-17T08:20:11.634Z,5.63
2022-09-17T08:22:16.066Z,8.10
2022-09-17T08:24:19.038Z,4.63
2022-09-17T08:26:23.553Z,6.10
2022-09-17T08:28:27.968Z,4.70
2022-09-17T08:30:31.824Z,4.57
2022-09-17T08:32:34.836Z,6.60
2022-09-17T08:34:38.040Z,5.17
2022-09-17T08:36:41.040Z,5.90
2022-09-17T08:38:45.722Z,8.13
2022-09-17T08:40:59.555Z,9.20
2022-09-17T08:43:03.473Z,7.40
2022-09-17T08:45:10.418Z,5.20
2022-09-17T08:47:18.444Z,7.60
2022-09-17T08:49:30.145Z,8.03
2022-09-17T08:51:40.002Z,7.10
2022-09-17T08:53:52.289Z,6.93
2022-09-17T08:56:01.235Z,4.57
2022-09-17T08:58:28.194Z,7.17
2022-09-17T09:00:33.940Z,4.60
2022-09-17T09:03:11.426Z,6.93
2022-09-17T09:05:16.580Z,5.03
2022-09-17T09:07:21.950Z,6.93
2022-09-17T09:09:31.172Z,8.07
2022-09-17T09:11:34.370Z,7.67
2022-09-17T09:13:40.366Z,7.97
2022-09-17T09:15:46.109Z,13.70
2022-09-17T09:17:50.988Z,14.50
2022-09-17T09:19:54.476Z,12.47
2022-09-17T09:22:03.566Z,8.33
2022-09-17T09:24:10.820Z,8.07
2022-09-17T09:26:18.437Z,8.70
2022-09-17T09:28:33.876Z,9.40
2022-09-17T09:30:44.523Z,8.93
2022-09-17T09:32:56.888Z,8.37
2022-09-17T09:35:01.601Z,9.20
2022-09-17T09:37:13.623Z,7.33
2022-09-17T09:39:20.244Z,7.00
2022-09-17T09:41:28.436Z,5.07
2022-09-17T09:44:02.206Z,6.90
2022-09-17T09:46:14.196Z,7.20
2022-09-17T09:48:22.035Z,8.10
2022-09-17T09:51:01.705Z,6.77
2022-09-17T09:53:05.796Z,7.97
2022-09-17T09:55:26.356Z,7.43
2022-09-17T09:57:39.726Z,10.27
2022-09-17T09:59:42.718Z,10.30
2022-09-17T10:01:46.410Z,10.43
2022-09-17T10:03:51.932Z,10.53
2022-09-17T10:05:59.303Z,7.23
2022-09-17T10:08:12.662Z,10.83
2022-09-17T10:10:15.666Z,9.70
2022-09-17T10:12:19.565Z,13.70
2022-09-17T10:14:25.551Z,8.80
2022-09-17T10:16:30.454Z,14.33
2022-09-17T10:18:33.561Z,6.10
2022-09-17T10:20:36.902Z,13.60
2022-09-17T10:22:41.109Z,12.37
2022-09-17T10:24:44.423Z,9.83
2022-09-17T10:26:47.469Z,8.57
2022-09-17T10:28:51.948Z,5.03
2022-09-17T10:31:04.092Z,8.50
2022-09-17T10:33:21.636Z,5.43
2022-09-17T10:35:28.573Z,7.67
2022-09-17T10:37:35.765Z,4.60
2022-09-17T10:39:44.402Z,6.67
2022-09-17T10:41:55.358Z,7.40
2022-09-17T10:43:58.508Z,5.90
2022-09-17T10:46:04.254Z,7.97
2022-09-17T10:48:16.131Z,7.63
2022-09-17T10:50:21.033Z,8.67
2022-09-17T10:52:26.501Z,10.47
2022-09-17T10:54:54.171Z,7.97
2022-09-17T10:56:59.993Z,5.97
2022-09-17T10:59:13.099Z,5.70
2022-09-17T11:01:29.674Z,5.17
2022-09-17T11:04:08.864Z,6.90
2022-09-17T11:06:31.614Z,7.47
2022-09-17T11:08:38.609Z,6.17
2022-09-17T11:10:48.652Z,6.47
2022-09-17T11:13:09.492Z,8.77
2022-09-17T11:15:25.874Z,6.83
2022-09-17T11:17:50.072Z,10.03
2022-09-17T11:20:00.766Z,8.80
2022-09-17T11:22:08.288Z,8.80
2022-09-17T11:24:48.832Z,5.00
2022-09-17T11:26:57.283Z,4.13
2022-09-17T11:29:09.160Z,3.93
2022-09-17T11:31:24.480Z,3.00
2022-09-17T11:33:46.341Z,1.83
2022-09-17T11:35:51.242Z,3.17
2022-09-17T11:38:00.073Z,3.07
2022-09-17T11:40:07.442Z,4.13
2022-09-17T11:42:15.670Z,2.30
2022-09-17T11:44:24.127Z,8.80
2022-09-17T11:46:31.953Z,2.10
2022-09-17T11:48:40.432Z,8.43
2022-09-17T11:50:46.581Z,18.70
2022-09-17T11:53:02.139Z,17.90
2022-09-17T11:55:11.002Z,14.47
2022-09-17T11:57:16.501Z,19.27
2022-09-17T11:59:22.165Z,21.30
2022-09-17T12:01:28.823Z,6.93
2022-09-17T12:03:34.814Z,3.10
2022-09-17T12:05:42.895Z,4.30
2022-09-17T12:07:51.448Z,4.77
2022-09-17T12:09:58.713Z,4.03
2022-09-17T12:12:05.139Z,3.00
2022-09-17T12:14:15.440Z,3.77
2022-09-17T12:16:22.358Z,6.00
2022-09-17T12:18:45.923Z,4.10
2022-09-17T12:20:53.111Z,3.47
2022-09-17T12:22:57.655Z,3.37
2022-09-17T12:25:02.314Z,4.60
2022-09-17T12:27:11.026Z,5.17
2022-09-17T12:29:25.229Z,5.00
2022-09-17T12:31:34.810Z,5.80
2022-09-17T12:33:40.612Z,3.73
2022-09-17T12:36:05.298Z,3.03
2022-09-17T12:38:20.830Z,3.80
2022-09-17T12:40:30.454Z,2.57
2022-09-17T12:42:43.220Z,3.03
2022-09-17T12:45:03.668Z,5.73
2022-09-17T12:47:25.861Z,3.63
2022-09-17T12:49:39.761Z,2.40
2022-09-17T12:51:55.914Z,5.97
2022-09-17T12:54:04.546Z,7.50
2022-09-17T12:56:16.859Z,9.00
2022-09-17T12:58:31.822Z,5.43
2022-09-17T13:00:38.830Z,3.40
2022-09-17T13:02:44.865Z,7.30
2022-09-17T13:05:06.357Z,10.23
2022-09-17T13:07:27.835Z,3.60
2022-09-17T13:09:49.058Z,8.30
2022-09-17T13:12:12.093Z,6.17
2022-09-17T13:14:19.840Z,10.73
2022-09-17T13:16:26.488Z,7.97
2022-09-17T13:18:35.547Z,6.23
2022-09-17T13:20:44.766Z,11.50
2022-09-17T13:22:51.224Z,7.30
2022-09-17T13:25:04.673Z,6.40
2022-09-17T13:27:21.006Z,8.60
2022-09-17T13:29:58.602Z,7.40
2022-09-17T13:32:01.584Z,6.40
2022-09-17T13:34:04.866Z,5.87
2022-09-17T13:36:41.093Z,3.03
2022-09-17T13:38:45.488Z,3.00
2022-09-17T13:40:48.501Z,4.70
2022-09-17T13:42:55.332Z,14.00
2022-09-17T13:45:07.726Z,6.53
2022-09-17T13:47:23.881Z,5.10
2022-09-17T13:49:26.900Z,7.17
2022-09-17T13:51:54.914Z,3.50
2022-09-17T13:54:01.905Z,3.97
2022-09-17T13:56:31.840Z,3.73
2022-09-17T13:58:36.014Z,3.10
2022-09-17T14:00:54.244Z,2.90
2022-09-17T14:03:37.208Z,3.93
2022-09-17T14:05:40.240Z,3.73
2022-09-17T14:07:49.025Z,2.80
2022-09-17T14:09:55.665Z,2.53
2022-09-17T14:11:58.717Z,2.93
2022-09-17T14:14:51.315Z,2.23
2022-09-17T14:16:54.270Z,2.73
2022-09-17T14:18:59.987Z,3.30
2022-09-17T14:21:07.174Z,2.73
2022-09-17T14:23:11.068Z,3.40
2022-09-17T14:25:32.685Z,4.33
2022-09-17T14:27:51.896Z,1.87
2022-09-17T14:30:17.046Z,2.60
2022-09-17T14:32:23.023Z,3.57
2022-09-17T14:34:27.336Z,3.10
2022-09-17T14:36:32.048Z,5.73
2022-09-17T14:38:39.681Z,3.47
2022-09-17T14:40:46.363Z,4.97
2022-09-17T14:42:52.744Z,2.60
2022-09-17T14:44:59.953Z,2.43
2022-09-17T14:47:04.499Z,3.20
2022-09-17T14:49:15.899Z,4.93
2022-09-17T14:51:40.440Z,5.00
2022-09-17T14:53:43.518Z,2.00
2022-09-17T14:55:48.496Z,3.47
2022-09-17T14:57:53.658Z,6.50
2022-09-17T14:59:57.210Z,4.13
2022-09-17T15:02:00.612Z,3.63
2022-09-17T15:04:21.369Z,3.10
2022-09-17T15:06:24.427Z,5.13
2022-09-17T15:08:30.245Z,3.73
2022-09-17T15:10:33.354Z,4.70
2022-09-17T15:12:39.775Z,5.37
2022-09-17T15:14:42.709Z,3.63
2022-09-17T15:16:49.428Z,3.63
2022-09-17T15:18:54.611Z,3.17
2022-09-17T15:20:58.616Z,5.50
2022-09-17T15:23:08.982Z,3.97
2022-09-17T15:25:16.306Z,3.70
2022-09-17T15:27:23.516Z,3.87
2022-09-17T15:29:30.004Z,4.43
2022-09-17T15:31:33.056Z,5.37
2022-09-17T15:33:36.289Z,5.23
2022-09-17T15:35:39.602Z,5.40
2022-09-17T15:37:46.646Z,3.50
2022-09-17T15:39:59.277Z,3.83
2022-09-17T15:42:02.411Z,3.03
2022-09-17T15:44:29.822Z,4.47
2022-09-17T15:46:35.071Z,3.60
2022-09-17T15:48:39.613Z,5.47
2022-09-17T15:50:51.993Z,7.03
2022-09-17T15:53:13.754Z,5.07
2022-09-17T15:55:33.551Z,6.00
2022-09-17T15:57:36.640Z,3.77
2022-09-17T15:59:39.922Z,4.40
2022-09-17T16:01:55.260Z,6.90
2022-09-17T16:04:10.008Z,5.30
2022-09-17T16:06:45.615Z,3.60
2022-09-17T16:08:49.773Z,5.50
2022-09-17T16:10:53.061Z,2.80
2022-09-17T16:12:56.114Z,5.80
2022-09-17T16:15:01.403Z,4.47
2022-09-17T16:17:23.620Z,3.87
2022-09-17T16:19:26.754Z,5.93
2022-09-17T16:21:29.928Z,4.50
2022-09-17T16:23:32.952Z,7.53
2022-09-17T16:25:36.038Z,4.07
2022-09-17T16:27:45.515Z,11.50
2022-09-17T16:29:49.127Z,4.30
2022-09-17T16:31:52.868Z,8.27
2022-09-17T16:33:57.208Z,5.73
2022-09-17T16:36:00.650Z,4.17
2022-09-17T16:38:03.781Z,7.20
2022-09-17T16:40:08.029Z,4.30
2022-09-17T16:42:11.050Z,5.60
2022-09-17T16:44:14.032Z,6.10
2022-09-17T16:46:17.271Z,4.73
2022-09-17T16:48:20.275Z,3.77
2022-09-17T16:50:24.737Z,3.40
2022-09-17T16:52:27.695Z,4.60
2022-09-17T16:54:30.718Z,4.80
2022-09-17T16:56:33.780Z,4.70
2022-09-17T16:58:37.093Z,3.90
2022-09-17T17:00:42.950Z,4.30
2022-09-17T17:02:47.291Z,4.37
2022-09-17T17:04:50.504Z,5.83
2022-09-17T17:06:54.846Z,4.20
2022-09-17T17:09:01.013Z,7.20
2022-09-17T17:11:03.957Z,4.97
2022-09-17T17:13:07.294Z,4.07
2022-09-17T17:15:11.083Z,3.50
2022-09-17T17:17:14.108Z,4.10
2022-09-17T17:19:17.745Z,2.80
2022-09-17T17:21:21.250Z,6.20
2022-09-17T17:23:25.612Z,4.53
2022-09-17T17:25:28.645Z,4.67
2022-09-17T17:27:31.620Z,4.80
2022-09-17T17:29:35.360Z,4.60
2022-09-17T17:31:38.427Z,4.17
2022-09-17T17:33:41.427Z,4.90
2022-09-17T17:35:45.516Z,5.60
2022-09-17T17:37:48.699Z,3.90
2022-09-17T17:39:53.838Z,4.80
2022-09-17T17:41:57.001Z,2.40
2022-09-17T17:43:59.963Z,2.63
2022-09-17T17:46:03.260Z,3.93
2022-09-17T17:48:06.517Z,2.53
2022-09-17T17:50:10.585Z,2.50
2022-09-17T17:52:13.538Z,2.10
2022-09-17T17:54:16.694Z,1.77
2022-09-17T17:56:21.074Z,2.50
2022-09-17T17:58:24.317Z,2.43
2022-09-17T18:00:27.710Z,2.13
2022-09-17T18:02:31.077Z,2.87
2022-09-17T18:04:34.380Z,2.13
2022-09-17T18:06:37.644Z,1.80
2022-09-17T18:08:42.105Z,2.23
2022-09-17T18:10:52.565Z,2.37
2022-09-17T18:12:56.945Z,4.00
2022-09-17T18:15:00.110Z,3.90
2022-09-17T18:17:03.098Z,2.60
2022-09-17T18:19:06.694Z,3.50
2022-09-17T18:21:11.686Z,3.30
2022-09-17T18:23:14.789Z,3.90
2022-09-17T18:25:18.042Z,5.47
2022-09-17T18:27:21.044Z,3.60
2022-09-17T18:29:25.348Z,4.30
2022-09-17T18:31:30.204Z,4.73
2022-09-17T18:33:33.830Z,5.13
2022-09-17T18:35:37.472Z,3.50
2022-09-17T18:37:40.482Z,3.67
2022-09-17T18:39:59.513Z,5.50
2022-09-17T18:42:03.175Z,6.23
2022-09-17T18:44:06.214Z,4.10
2022-09-17T18:46:10.907Z,3.83
2022-09-17T18:48:13.967Z,5.70
2022-09-17T18:50:17.886Z,5.30
2022-09-17T18:52:21.070Z,3.40
2022-09-17T18:54:24.152Z,4.07
2022-09-17T18:56:28.983Z,3.93
2022-09-17T18:58:32.024Z,4.40
2022-09-17T19:00:35.029Z,4.20
2022-09-17T19:02:39.667Z,3.60
2022-09-17T19:04:42.997Z,5.20
2022-09-17T19:06:46.015Z,5.23
2022-09-17T19:08:49.994Z,5.43
2022-09-17T19:10:53.393Z,4.33
2022-09-17T19:12:56.419Z,5.03
2022-09-17T19:14:59.414Z,4.67
2022-09-17T19:17:02.475Z,3.40
2022-09-17T19:19:07.019Z,3.80
2022-09-17T19:21:12.263Z,4.97
2022-09-17T19:23:15.405Z,3.20
2022-09-17T19:25:19.710Z,8.93
2022-09-17T19:27:22.897Z,7.77
2022-09-17T19:29:25.969Z,6.43
2022-09-17T19:31:29.441Z,8.37
2022-09-17T19:33:32.611Z,6.23
2022-09-17T19:35:36.937Z,9.57
2022-09-17T19:37:39.944Z,9.50
2022-09-17T19:39:42.903Z,13.73
2022-09-17T19:41:45.979Z,6.77
2022-09-17T19:43:51.566Z,5.63
2022-09-17T19:46:01.491Z,3.57
2022-09-17T19:48:04.706Z,9.27
2022-09-17T19:50:08.019Z,9.00
2022-09-17T19:52:12.414Z,4.67
2022-09-17T19:54:15.513Z,4.47
2022-09-17T19:56:20.188Z,4.60
2022-09-17T19:58:23.173Z,3.53
2022-09-17T20:00:26.413Z,4.20
2022-09-17T20:02:29.510Z,4.43
2022-09-17T20:04:32.604Z,6.67
2022-09-17T20:06:36.105Z,10.30
2022-09-17T20:08:47.034Z,14.93
2022-09-17T20:10:50.989Z,8.70
2022-09-17T20:12:53.992Z,12.60
2022-09-17T20:14:57.011Z,9.93
2022-09-17T20:17:00.040Z,18.23
2022-09-17T20:19:03.318Z,16.93
2022-09-17T20:21:10.189Z,28.13
2022-09-17T20:23:13.273Z,19.90
2022-09-17T20:25:17.727Z,22.27
2022-09-17T20:27:20.752Z,27.67
2022-09-17T20:29:23.790Z,29.30
2022-09-17T20:31:28.382Z,19.60
2022-09-17T20:33:31.517Z,11.97
2022-09-17T20:35:36.241Z,13.60
2022-09-17T20:40:02.654Z,11.90
2022-09-17T20:42:07.249Z,6.50
2022-09-17T20:44:10.266Z,6.87
2022-09-17T20:46:13.953Z,4.20
2022-09-17T20:48:16.964Z,3.27
2022-09-17T20:50:19.995Z,2.70
2022-09-17T20:52:23.005Z,4.10
2022-09-17T20:54:26.002Z,2.87
2022-09-17T20:56:31.388Z,4.20
2022-09-17T20:58:39.582Z,3.63
2022-09-17T21:00:42.788Z,4.60
2022-09-17T21:02:50.450Z,5.77
2022-09-17T21:04:54.172Z,3.60
2022-09-17T21:06:57.188Z,2.70
2022-09-17T21:09:00.725Z,3.00
2022-09-17T21:11:05.605Z,5.07
2022-09-17T21:13:08.624Z,3.50
2022-09-17T21:15:13.957Z,3.43
2022-09-17T21:17:16.954Z,2.70
2022-09-17T21:19:21.366Z,2.80
2022-09-17T21:21:25.147Z,4.40
2022-09-17T21:23:29.170Z,3.70
2022-09-17T21:25:32.167Z,3.33
2022-09-17T21:27:35.131Z,4.53
2022-09-17T21:29:38.115Z,4.33
2022-09-17T21:31:42.584Z,3.93
2022-09-17T21:33:46.478Z,4.47
2022-09-17T21:35:50.963Z,3.80
2022-09-17T21:37:53.944Z,5.33
2022-09-17T21:39:57.104Z,3.30
2022-09-17T21:42:00.232Z,5.50
2022-09-17T21:44:03.492Z,4.93
2022-09-17T21:46:08.722Z,4.10
2022-09-17T21:48:13.102Z,3.67
2022-09-17T21:50:16.271Z,2.50
2022-09-17T21:52:19.335Z,3.03
2022-09-17T21:54:22.396Z,3.57
2022-09-17T21:56:25.444Z,13.50
2022-09-17T21:58:28.445Z,4.37
2022-09-17T22:00:31.419Z,6.93
2022-09-17T22:02:35.723Z,3.33
2022-09-17T22:04:40.189Z,2.60
2022-09-17T22:06:43.850Z,2.97
2022-09-17T22:08:47.122Z,6.03
2022-09-17T22:10:50.145Z,3.90
2022-09-17T22:12:53.165Z,3.23
2022-09-17T22:14:56.236Z,2.60
2022-09-17T22:16:59.738Z,3.10
2022-09-17T22:19:03.956Z,5.03
2022-09-17T22:21:14.777Z,2.87
2022-09-17T22:23:17.842Z,4.03
2022-09-17T22:25:20.887Z,5.53
2022-09-17T22:27:23.965Z,4.80
2022-09-17T22:29:30.189Z,2.80
2022-09-17T22:31:33.613Z,4.20
2022-09-17T22:33:37.784Z,3.53
2022-09-17T22:35:40.832Z,4.13
2022-09-17T22:37:45.523Z,3.97
2022-09-17T22:39:48.522Z,8.90
2022-09-17T22:41:51.606Z,5.73
2022-09-17T22:43:55.062Z,3.63
2022-09-17T22:45:58.070Z,6.40
2022-09-17T22:48:01.091Z,3.80
2022-09-17T22:50:04.132Z,2.83
2022-09-17T22:52:07.157Z,3.30
2022-09-17T22:54:13.533Z,7.40
2022-09-17T22:56:18.457Z,6.90
2022-09-17T22:58:24.127Z,4.37
2022-09-17T23:00:27.131Z,4.57
2022-09-17T23:02:30.187Z,3.87
2022-09-17T23:04:33.221Z,4.73
2022-09-17T23:06:38.959Z,5.43
2022-09-17T23:08:42.431Z,5.93
2022-09-17T23:10:46.793Z,4.30
2022-09-17T23:12:49.770Z,3.40
2022-09-17T23:14:52.819Z,6.67
2022-09-17T23:16:56.747Z,5.27
2022-09-17T23:18:59.794Z,3.83
2022-09-17T23:21:07.038Z,2.60
2022-09-17T23:23:10.179Z,4.80
2022-09-17T23:25:13.157Z,3.23
2022-09-17T23:27:17.610Z,8.07
2022-09-17T23:29:20.736Z,6.37
2022-09-17T23:31:24.773Z,15.70
2022-09-17T23:33:27.818Z,5.23
2022-09-17T23:35:30.877Z,4.73
2022-09-17T23:37:34.632Z,4.87
2022-09-17T23:39:37.781Z,5.10
2022-09-17T23:41:43.157Z,4.47
2022-09-17T23:43:48.985Z,4.40
2022-09-17T23:45:57.337Z,6.80
2022-09-17T23:48:00.537Z,2.47
2022-09-17T23:50:03.749Z,4.73
2022-09-17T23:52:07.325Z,4.20
2022-09-17T23:54:10.301Z,3.47
2022-09-17T23:56:14.923Z,3.73
2022-09-17T23:58:17.998Z,6.03
